Airfield :
LOGIN :

Register | Disclaimer

   EN    FR    IT 

 










Legend :    VFR   Marginal VFR   IFR   Intensive IFR   Very Intensive IFR
Visi :
Ceiling :
>= 8 km
>= 3000ft
5 to 8 km
1000 to 3000 ft
1500m to 5 km
500 to 1000 ft
800 to 1500m
200 to 500 ft
< 800m
< 200 ft
Symbols :   Thunderstorms  Fog  Heavy snow  Heavy precipitations  Wind > 20 kt
SIGMETs :     Misc.  Thunderstorms  Icing  Turbulence  Mountain Waves  Volcanic Ashes







- Airport Elevation : 650 ft
- IATA code : ZJI


LSZL - Locarno

CURRENT METAR :
  • 231320Z AUTO 26004KT 220V300 9999NDV NCD 26/18 Q1016 RMK

EXPIRED METARs :
  • 231250Z AUTO 27005KT 200V340 9999NDV NCD 26/19 Q1016 RMK
  • 231220Z AUTO 23004KT 200V270 9999NDV NCD 26/18 Q1017 RMK
  • 231150Z AUTO 27004KT 220V330 9999NDV NCD 26/18 Q1017 RMK
  • 231120Z AUTO 25005KT 9999NDV NCD 25/17 Q1018 RMK
  • 231050Z AUTO 25007KT 220V290 9999NDV NCD 24/17 Q1018 RMK

Expired Forecast.
No reported NOTAMs for that airfield.
1 SIGMET reported for the Switzerland FIR (LSAS) :
 
Severe turbulence
LSAS SIGMET 1 VALID 231300/231500 LSZH
LSAS SWITZERLAND FIR SEV TURB FCST WI N4757 E00844 - N4737 E00842 - N4657 E00712 - N4654 E00704 - N4654 E00701 - N4717 E00651 - N4733 E00654 - N4757 E00844 SFC/FL100 MOV SE INTSF=



MET'MAP, your aeronautical weather chart ! - Copyright ORBIFLY December 2007 - Disclaimer

ORBIFLY MET'MAP TEAM :

Programming & Development : Alexandra Zaïnal
Concept & Development : Baudouin d'Aumeries
Co-Development & Prog : Marc-Olivier Méhu
Technical & hardware support : Manuel Goepfert

Contact : metmap@orbifly.com




SOURCES & CREDITS :

   NOAA